Time;durP1;ratioP1;P1;durP2;ratioP2;P2;SDS_P1;SDS_P2;PMS_P1;PMS_P2;Temp;Humidity;BMP_temperature;BMP_pressure;BME280_temperature;BME280_humidity;BME280_pressure;Samples;Min_cycle;Max_cycle;Signal;HPM_P1;HPM_P2
2021/04/24 00:00:13;;;;;;;7.70;3.30;;;;;;;15.12;33.73;100621.09;1782368;80;21048;-77
2021/04/24 00:02:43;;;;;;;6.87;3.15;;;;;;;15.11;33.86;100620.77;1782515;80;21085;-82
2021/04/24 00:05:24;;;;;;;6.40;3.58;;;;;;;15.10;33.86;100618.27;1782101;80;21101;-82
2021/04/24 00:08:04;;;;;;;5.37;3.02;;;;;;;15.09;33.96;100626.87;1782350;80;21065;-79
2021/04/24 00:10:34;;;;;;;7.28;3.75;;;;;;;15.09;33.94;100624.17;1782037;80;21068;-80
2021/04/24 00:13:01;;;;;;;6.95;3.33;;;;;;;15.08;33.97;100627.90;1781731;80;21104;-78
2021/04/24 00:15:29;;;;;;;7.22;3.40;;;;;;;15.10;33.94;100629.89;1782366;80;21128;-78
2021/04/24 00:17:58;;;;;;;7.70;3.55;;;;;;;15.09;34.01;100631.43;1753855;80;21595;-77
2021/04/24 00:20:26;;;;;;;6.05;3.12;;;;;;;15.06;34.04;100629.09;1782269;80;21163;-77
2021/04/24 00:22:53;;;;;;;;;;;;;;;15.03;34.05;100631.62;1785116;80;21065;-80
2021/04/24 00:25:20;;;;;;;8.43;3.52;;;;;;;15.01;34.03;100626.11;1782604;80;20211;-78
2021/04/24 00:27:48;;;;;;;6.60;3.67;;;;;;;14.97;34.11;100637.25;1782242;80;21140;-78
2021/04/24 00:30:16;;;;;;;5.72;3.67;;;;;;;14.95;34.19;100637.13;1782147;80;21190;-77
2021/04/24 00:32:43;;;;;;;6.72;3.90;;;;;;;14.93;34.27;100639.15;1780867;80;21236;-80
2021/04/24 00:35:13;;;;;;;7.83;3.98;;;;;;;14.90;34.40;100650.33;1781443;80;21053;-78
2021/04/24 00:37:40;;;;;;;9.88;4.15;;;;;;;14.88;34.41;100647.78;1782457;80;21084;-80
2021/04/24 00:40:09;;;;;;;8.73;4.80;;;;;;;14.86;34.54;100647.66;1782340;80;21168;-75
2021/04/24 00:42:37;;;;;;;6.42;3.87;;;;;;;14.84;34.42;100647.81;1779762;80;21136;-79
2021/04/24 00:45:08;;;;;;;9.63;4.58;;;;;;;14.84;34.44;100642.42;1782269;80;21053;-79
2021/04/24 00:47:36;;;;;;;8.10;3.92;;;;;;;14.83;34.56;100648.01;1782463;80;21152;-80
2021/04/24 00:50:05;;;;;;;;;;;;;;;14.81;34.66;100650.06;1757050;80;21060;-77
2021/04/24 00:52:32;;;;;;;10.78;4.30;;;;;;;14.79;34.69;100648.04;1754495;80;20246;-76
2021/04/24 00:55:00;;;;;;;10.98;4.22;;;;;;;14.76;34.76;100651.09;1729268;80;21171;-77
2021/04/24 00:57:28;;;;;;;6.05;4.17;;;;;;;14.74;34.76;100645.88;1782121;80;21175;-77
2021/04/24 00:59:55;;;;;;;8.43;4.55;;;;;;;14.70;34.80;100648.61;1782298;80;21155;-77
2021/04/24 01:02:22;;;;;;;;;;;;;;;14.67;34.84;100651.66;1784964;80;21052;-77
2021/04/24 01:04:50;;;;;;;9.23;4.57;;;;;;;14.64;34.86;100647.48;1782705;80;20481;-77
2021/04/24 01:07:17;;;;;;;;;;;;;;;14.60;35.02;100647.50;1784963;80;21548;-77
2021/04/24 01:09:44;;;;;;;8.48;4.50;;;;;;;14.58;35.03;100648.21;1782274;80;20159;-80
2021/04/24 01:12:11;;;;;;;6.40;4.17;;;;;;;14.53;35.11;100649.23;1782214;80;21049;-79
2021/04/24 01:14:39;;;;;;;6.40;3.98;;;;;;;14.52;35.06;100651.60;1754436;80;21131;-78
2021/04/24 01:17:06;;;;;;;5.72;4.33;;;;;;;14.52;35.07;100657.50;1754419;80;21128;-79
2021/04/24 01:19:34;;;;;;;7.83;4.17;;;;;;;14.50;35.06;100660.39;1782420;80;21494;-80
2021/04/24 01:22:10;;;;;;;8.15;4.20;;;;;;;14.50;34.97;100652.81;1782181;80;21100;-78
2021/04/24 01:24:37;;;;;;;8.33;4.17;;;;;;;14.50;34.92;100653.66;1782338;80;21143;-77
2021/04/24 01:27:06;;;;;;;6.28;4.00;;;;;;;14.48;34.90;100652.97;1782063;80;21089;-80
2021/04/24 01:29:35;;;;;;;6.22;3.40;;;;;;;14.47;34.90;100658.01;1781245;80;21156;-82
2021/04/24 01:32:03;;;;;;;6.10;3.95;;;;;;;14.44;34.94;100655.18;1780905;80;21168;-81
2021/04/24 01:34:33;;;;;;;11.48;4.58;;;;;;;14.45;34.93;100661.41;1780849;80;21203;-81
2021/04/24 01:37:03;;;;;;;9.70;4.60;;;;;;;14.41;34.96;100666.31;1782273;80;21065;-78
2021/04/24 01:39:31;;;;;;;8.48;4.75;;;;;;;14.40;34.96;100662.45;1782363;80;21116;-81
2021/04/24 01:41:58;;;;;;;20.57;5.62;;;;;;;14.37;34.92;100657.41;1782300;80;21148;-80
2021/04/24 01:44:25;;;;;;;;;;;;;;;14.35;35.00;100668.86;1784929;80;21148;-80
2021/04/24 01:46:53;;;;;;;10.25;5.12;;;;;;;14.32;35.00;100667.88;1782350;80;20218;-78
2021/04/24 01:49:20;;;;;;;11.43;4.35;;;;;;;14.29;35.02;100668.23;1754170;80;21089;-82
2021/04/24 01:51:48;;;;;;;7.92;4.37;;;;;;;14.26;35.05;100669.92;1753285;80;21172;-78
2021/04/24 01:54:15;;;;;;;;;;;;;;;14.23;35.09;100664.91;1783604;80;21156;-80
2021/04/24 01:56:49;;;;;;;9.65;4.53;;;;;;;14.21;35.05;100667.75;1752914;80;20278;-79
2021/04/24 01:59:19;;;;;;;6.95;3.80;;;;;;;14.17;35.00;100663.73;1781293;80;21200;-80
2021/04/24 02:01:48;;;;;;;7.62;3.42;;;;;;;14.15;34.94;100663.92;1781194;80;21187;-77
2021/04/24 02:04:17;;;;;;;5.58;3.70;;;;;;;14.12;34.90;100662.92;1781292;80;21195;-79
2021/04/24 02:06:44;;;;;;;9.28;4.20;;;;;;;14.10;34.91;100667.66;1782081;80;21064;-80
2021/04/24 02:09:12;;;;;;;7.62;3.92;;;;;;;14.10;34.91;100668.17;1781787;80;21168;-82
2021/04/24 02:12:09;;;;;;;13.05;4.22;;;;;;;14.08;34.93;100667.48;1782070;80;21596;-78
2021/04/24 02:14:49;;;;;;;6.92;4.00;;;;;;;14.06;34.94;100669.53;1779818;80;21105;-78
2021/04/24 02:17:24;;;;;;;6.85;3.95;;;;;;;14.05;34.86;100677.28;1782306;80;21128;-78
2021/04/24 02:19:53;;;;;;;9.65;5.62;;;;;;;14.02;34.91;100671.73;1780026;80;21072;-79
2021/04/24 02:22:22;;;;;;;10.93;6.05;;;;;;;14.02;34.81;100673.59;1782386;80;21088;-79
2021/04/24 02:24:56;;;;;;;12.15;6.20;;;;;;;14.00;34.73;100671.59;1754260;80;21155;-79
2021/04/24 02:27:24;;;;;;;8.30;4.30;;;;;;;13.98;34.69;100678.48;1782356;80;21049;-83
2021/04/24 02:29:54;;;;;;;8.33;4.50;;;;;;;13.98;34.67;100688.41;1782420;80;21081;-78
2021/04/24 02:32:24;;;;;;;6.12;3.42;;;;;;;13.94;34.66;100682.05;1779674;80;21496;-76
2021/04/24 02:34:52;;;;;;;8.00;3.98;;;;;;;13.98;34.58;100689.25;1782518;80;21512;-76
2021/04/24 02:37:19;;;;;;;6.62;3.72;;;;;;;13.98;34.53;100682.52;1754359;80;21171;-78
2021/04/24 02:39:49;;;;;;;6.67;4.05;;;;;;;13.99;34.51;100685.56;1782252;80;21176;-77
2021/04/24 02:42:20;;;;;;;6.78;3.87;;;;;;;13.99;34.47;100686.05;1728479;80;21176;-81
2021/04/24 02:44:48;;;;;;;8.70;4.47;;;;;;;13.98;34.56;100691.94;1782097;80;21135;-80
2021/04/24 02:47:17;;;;;;;6.92;4.53;;;;;;;13.96;34.54;100700.20;1782261;80;21159;-78
2021/04/24 02:49:44;;;;;;;5.15;4.00;;;;;;;13.95;34.61;100695.00;1754576;80;21084;-81
2021/04/24 02:52:11;;;;;;;11.65;4.92;;;;;;;13.93;34.65;100695.66;1782208;80;21057;-81
2021/04/24 02:54:38;;;;;;;;;;;;;;;13.92;34.62;100691.30;1784925;80;21595;-78
2021/04/24 02:57:06;;;;;;;8.35;4.53;;;;;;;13.89;34.77;100684.91;1796140;77;20263;-82
2021/04/24 02:59:33;;;;;;;5.75;4.05;;;;;;;13.85;34.79;100697.91;1813239;79;21172;-80
2021/04/24 03:02:01;;;;;;;12.88;5.30;;;;;;;13.85;34.87;100704.64;1813375;79;21172;-80
2021/04/24 03:04:30;;;;;;;8.65;3.90;;;;;;;13.84;34.92;100710.17;1786086;79;21160;-78
2021/04/24 03:06:59;;;;;;;7.97;3.95;;;;;;;13.84;34.90;100711.52;1786085;79;21139;-78
2021/04/24 03:09:26;;;;;;;7.17;3.85;;;;;;;13.85;34.88;100711.84;1813551;79;21168;-77
2021/04/24 03:11:54;;;;;;;5.65;3.70;;;;;;;13.84;34.86;100719.59;1812936;78;21151;-79
2021/04/24 03:14:21;;;;;;;10.38;4.30;;;;;;;13.84;34.90;100719.59;1812475;79;21196;-81
2021/04/24 03:16:48;;;;;;;5.42;3.60;;;;;;;13.84;34.88;100731.72;1812794;79;21163;-78
2021/04/24 03:19:16;;;;;;;7.83;3.65;;;;;;;13.82;34.95;100727.02;1812857;78;21431;-76
2021/04/24 03:21:43;;;;;;;8.98;4.58;;;;;;;13.81;34.90;100734.27;1813080;79;21140;-76
2021/04/24 03:24:10;;;;;;;;;;;;;;;13.81;34.90;100734.77;1817134;79;21124;-77
2021/04/24 03:26:37;;;;;;;6.37;4.08;;;;;;;13.78;34.92;100725.17;1813496;79;20228;-77
2021/04/24 03:29:06;;;;;;;7.80;4.33;;;;;;;13.77;34.99;100726.70;1785350;79;21510;-76
2021/04/24 03:31:34;;;;;;;6.40;3.98;;;;;;;13.75;35.07;100721.98;1814240;78;21084;-79
2021/04/24 03:34:03;;;;;;;8.35;3.75;;;;;;;13.76;35.02;100727.18;1785656;79;21058;-81
2021/04/24 03:36:30;;;;;;;9.75;3.87;;;;;;;13.78;34.99;100732.41;1813503;79;21676;-80
2021/04/24 03:38:57;;;;;;;5.10;3.47;;;;;;;13.80;34.99;100744.67;1813904;78;21571;-80
2021/04/24 03:41:25;;;;;;;6.90;3.37;;;;;;;13.82;35.02;100754.78;1814155;79;21048;-80
2021/04/24 03:43:52;;;;;;;;;;;;;;;13.84;35.08;100753.25;1816738;79;21148;-78
2021/04/24 03:46:20;;;;;;;8.20;3.92;;;;;;;13.85;35.04;100754.92;1784293;79;20272;-78
2021/04/24 03:48:48;;;;;;;8.68;3.87;;;;;;;13.87;35.03;100757.80;1786710;79;21566;-78
2021/04/24 03:51:15;;;;;;;;;;;;;;;13.90;35.02;100757.97;1815818;79;21203;-79
2021/04/24 03:53:42;;;;;;;6.55;3.92;;;;;;;13.66;35.41;100761.02;1813184;79;20552;-81
2021/04/24 03:56:10;;;;;;;6.97;4.28;;;;;;;13.64;35.47;100760.88;1813752;79;21046;-81
2021/04/24 03:58:37;;;;;;;9.68;4.83;;;;;;;13.65;35.50;100766.08;1815131;79;21108;-80
2021/04/24 04:01:05;;;;;;;8.68;4.70;;;;;;;13.67;35.56;100754.66;1814878;79;21089;-81
2021/04/24 04:03:32;;;;;;;;;;;;;;;13.70;35.56;100754.80;1789808;79;21069;-76
2021/04/24 04:05:59;;;;;;;9.33;4.87;;;;;;;13.73;35.58;100761.70;1813804;79;20267;-79
2021/04/24 04:08:26;;;;;;;8.03;4.55;;;;;;;13.73;35.59;100766.58;1784620;79;21595;-77
2021/04/24 04:10:55;;;;;;;10.23;5.05;;;;;;;13.78;35.61;100766.07;1802742;79;20998;-79
2021/04/24 04:13:23;;;;;;;10.25;4.35;;;;;;;13.81;35.57;100772.47;1768324;79;21703;-79
2021/04/24 04:15:51;;;;;;;12.55;4.08;;;;;;;13.86;35.45;100776.83;1785409;79;21648;-83
2021/04/24 04:18:20;;;;;;;7.80;3.65;;;;;;;13.89;35.50;100776.46;1785121;80;21199;-77
2021/04/24 04:20:51;;;;;;;7.40;4.17;;;;;;;13.96;35.46;100788.24;1767885;79;21249;-76
2021/04/24 04:23:24;;;;;;;6.72;3.70;;;;;;;14.00;35.35;100776.11;1786146;79;21102;-80
2021/04/24 04:25:51;;;;;;;5.53;3.70;;;;;;;14.02;35.43;100782.66;1785768;79;21908;-78
2021/04/24 04:28:19;;;;;;;7.83;3.12;;;;;;;14.06;35.34;100781.31;1785428;79;21181;-76
2021/04/24 04:30:48;;;;;;;4.42;3.05;;;;;;;14.12;35.39;100781.44;1781081;78;21605;-76
2021/04/24 04:33:15;;;;;;;6.85;3.80;;;;;;;14.19;35.21;100786.48;1769465;79;21233;-79
2021/04/24 04:35:43;;;;;;;7.60;3.98;;;;;;;14.25;35.19;100789.49;1746248;80;21217;-78
2021/04/24 04:38:10;;;;;;;9.23;3.77;;;;;;;14.31;35.19;100791.52;1787761;80;21652;-78
2021/04/24 04:40:37;;;;;;;;;;;;;;;14.37;35.00;100791.64;1787628;80;21232;-80
2021/04/24 04:43:05;;;;;;;6.58;3.37;;;;;;;14.42;35.04;100778.98;1784909;80;20262;-78
2021/04/24 04:45:32;;;;;;;6.42;3.58;;;;;;;14.45;35.08;100781.34;1734744;82;21494;-79
2021/04/24 04:47:59;;;;;;;8.75;3.90;;;;;;;14.53;35.03;100783.17;1754864;80;21193;-79
2021/04/24 04:50:31;;;;;;;4.95;3.58;;;;;;;14.52;35.13;100779.64;1771385;80;21235;-81
2021/04/24 04:52:59;;;;;;;5.03;3.25;;;;;;;14.60;35.12;100784.99;1787436;79;21225;-77
2021/04/24 04:55:27;;;;;;;4.58;3.20;;;;;;;14.66;35.07;100781.58;1782860;80;21608;-80
2021/04/24 04:57:55;;;;;;;11.40;4.85;;;;;;;14.72;34.96;100780.06;1781168;79;21224;-78
2021/04/24 05:00:23;;;;;;;4.47;2.95;;;;;;;14.77;34.94;100782.22;1783930;80;21532;-77
2021/04/24 05:02:51;;;;;;;5.12;3.00;;;;;;;14.80;34.76;100776.45;1771587;79;21113;-78
2021/04/24 05:05:19;;;;;;;4.80;3.12;;;;;;;14.80;34.75;100786.73;1784675;80;21137;-80
2021/04/24 05:07:49;;;;;;;12.40;3.33;;;;;;;14.82;34.81;100783.88;1787019;80;21177;-78
2021/04/24 05:10:18;;;;;;;6.45;2.70;;;;;;;14.81;34.61;100787.08;1783341;80;21212;-80
2021/04/24 05:12:45;;;;;;;6.87;3.17;;;;;;;14.81;34.63;100784.38;1759004;80;21208;-80
2021/04/24 05:15:13;;;;;;;;;;;;;;;14.82;34.58;100789.27;1791202;80;21165;-79
2021/04/24 05:17:40;;;;;;;5.00;2.33;;;;;;;14.85;34.45;100791.59;1757043;80;20189;-80
2021/04/24 05:20:08;;;;;;;3.60;2.40;;;;;;;14.87;34.27;100793.61;1764667;80;21221;-76
2021/04/24 05:22:35;;;;;;;3.80;2.27;;;;;;;14.88;34.17;100795.28;1786156;79;21218;-78
2021/04/24 05:25:05;;;;;;;4.55;2.15;;;;;;;14.88;34.29;100797.47;1778902;80;21196;-79
2021/04/24 05:27:33;;;;;;;4.00;2.33;;;;;;;14.90;34.28;100802.70;1755472;80;21640;-79
2021/04/24 05:30:00;;;;;;;3.27;2.15;;;;;;;14.92;34.24;100795.27;1751463;80;21236;-78
2021/04/24 05:32:27;;;;;;;;;;;;;;;14.93;34.12;100796.42;1758712;80;21220;-77
2021/04/24 05:34:55;;;;;;;3.25;2.02;;;;;;;14.97;34.18;100803.66;1778501;80;20286;-79
2021/04/24 05:37:22;;;;;;;7.55;2.60;;;;;;;14.98;34.35;100801.28;1788806;80;21222;-78
2021/04/24 05:39:52;;;;;;;5.12;2.30;;;;;;;15.01;34.16;100799.59;1785049;80;21452;-76
2021/04/24 05:42:21;;;;;;;6.97;3.15;;;;;;;15.03;34.07;100807.49;1779152;80;21208;-75
2021/04/24 05:44:48;;;;;;;;;;;;;;;15.06;34.03;100805.80;1769795;80;21201;-77
2021/04/24 05:47:15;;;;;;;3.20;2.15;;;;;;;15.09;34.21;100804.94;1772892;79;20276;-77
2021/04/24 05:49:42;;;;;;;;;;;;;;;15.15;34.37;100806.91;1801569;79;21192;-80
2021/04/24 05:52:09;;;;;;;5.75;2.25;;;;;;;15.23;34.28;100806.02;1788408;79;20330;-77
2021/04/24 05:54:37;;;;;;;7.10;2.30;;;;;;;15.31;33.94;100810.52;1769191;80;21238;-78
2021/04/24 05:57:04;;;;;;;7.22;2.52;;;;;;;15.34;33.89;100808.28;1739341;81;21197;-78
2021/04/24 05:59:32;;;;;;;4.05;2.75;;;;;;;15.42;34.10;100812.78;1782755;80;21193;-81
2021/04/24 06:01:59;;;;;;;6.22;2.77;;;;;;;15.47;34.02;100812.56;1748969;80;21200;-79
2021/04/24 06:04:28;;;;;;;6.25;2.87;;;;;;;15.45;34.15;100816.48;1768490;80;21429;-78
2021/04/24 06:07:00;;;;;;;7.62;2.80;;;;;;;15.48;34.28;100811.53;1759029;80;21236;-77
2021/04/24 06:09:26;;;;;;;6.78;2.50;;;;;;;15.56;34.27;100817.38;1768307;80;21233;-78
2021/04/24 06:11:55;;;;;;;5.42;2.62;;;;;;;15.64;34.15;100812.47;1796941;79;21201;-78
2021/04/24 06:14:22;;;;;;;;;;;;;;;15.78;34.22;100818.92;1779857;79;21197;-77
2021/04/24 06:16:49;;;;;;;4.62;2.67;;;;;;;15.96;34.19;100819.41;1771293;79;20294;-79
2021/04/24 06:19:18;;;;;;;4.55;2.83;;;;;;;16.13;34.04;100822.28;1789358;78;21216;-78
2021/04/24 06:21:46;;;;;;;5.45;2.75;;;;;;;16.30;33.67;100822.08;1771722;80;21208;-78
2021/04/24 06:24:13;;;;;;;5.15;2.55;;;;;;;16.39;33.36;100815.55;1801112;79;21593;-79
2021/04/24 06:26:41;;;;;;;8.40;2.67;;;;;;;16.48;33.31;100814.42;1772088;80;21208;-78
2021/04/24 06:29:08;;;;;;;3.40;2.35;;;;;;;16.58;33.43;100808.23;1750562;81;21207;-81
2021/04/24 06:31:38;;;;;;;3.80;2.62;;;;;;;16.76;33.42;100806.99;1766931;80;21244;-79
2021/04/24 06:34:05;;;;;;;8.90;3.05;;;;;;;16.93;33.12;100796.27;1784644;80;21230;-82
2021/04/24 06:36:32;;;;;;;3.08;2.33;;;;;;;17.10;32.85;100797.70;1784807;80;21189;-80
2021/04/24 06:39:05;;;;;;;3.95;2.30;;;;;;;17.28;32.69;100791.84;1781905;80;21216;-77
2021/04/24 06:41:30;;;;;;;9.05;4.28;;;;;;;17.39;32.17;100796.73;1776468;80;21221;-79
2021/04/24 06:43:57;;;;;;;5.62;3.17;;;;;;;17.47;31.82;100808.78;1786566;80;21217;-81
2021/04/24 06:46:23;;;;;;;10.72;2.95;;;;;;;17.52;31.47;100801.43;1757920;80;21792;-80
2021/04/24 06:48:51;;;;;;;13.53;2.92;;;;;;;17.61;31.23;100821.92;1784572;80;21225;-76
2021/04/24 06:51:18;;;;;;;;;;;;;;;17.74;31.02;100822.07;1732358;81;21220;-76
2021/04/24 06:53:45;;;;;;;5.55;2.77;;;;;;;17.91;30.71;100820.44;1729833;80;21044;-74
2021/04/24 06:56:13;;;;;;;7.95;3.12;;;;;;;18.10;30.73;100825.16;1789706;80;21177;-77
2021/04/24 06:58:41;;;;;;;4.97;2.90;;;;;;;18.25;30.37;100823.67;1805584;78;21197;-78
2021/04/24 07:01:08;;;;;;;6.83;3.05;;;;;;;18.31;30.14;100815.28;1824061;78;21177;-78
2021/04/24 07:03:37;;;;;;;7.90;2.37;;;;;;;18.25;30.09;100828.58;1788750;78;21204;-76
2021/04/24 07:06:05;;;;;;;9.53;2.37;;;;;;;18.15;29.89;100839.47;1780388;80;21519;-78
2021/04/24 07:08:32;;;;;;;4.30;2.20;;;;;;;17.98;30.14;100853.83;1766104;80;21348;-76
2021/04/24 07:10:59;;;;;;;;;;;;;;;17.75;30.95;100857.61;1765398;80;21200;-77
2021/04/24 07:13:28;;;;;;;8.48;2.02;;;;;;;17.50;31.70;100849.03;1788322;79;20285;-80
2021/04/24 07:15:57;;;;;;;5.35;2.20;;;;;;;17.27;32.98;100848.91;1738824;81;21196;-78
2021/04/24 07:18:24;;;;;;;2.92;2.08;;;;;;;17.02;33.63;100847.89;1796612;79;21174;-78
2021/04/24 07:20:52;;;;;;;5.83;2.55;;;;;;;16.89;34.20;100855.85;1801268;78;21119;-77
2021/04/24 07:23:19;;;;;;;4.83;2.40;;;;;;;16.84;34.71;100845.59;1796012;77;21173;-80
2021/04/24 07:25:46;;;;;;;;;;;;;;;16.89;35.11;100849.09;1778427;79;21192;-78
2021/04/24 07:28:13;;;;;;;3.60;2.65;;;;;;;17.01;35.04;100857.05;1786592;79;20288;-78
2021/04/24 07:30:40;;;;;;;6.20;2.83;;;;;;;17.17;34.88;100851.41;1786837;79;21200;-75
2021/04/24 07:33:07;;;;;;;4.28;2.40;;;;;;;17.35;34.00;100852.82;1781365;79;21292;-77
2021/04/24 07:35:34;;;;;;;;;;;;;;;17.62;33.90;100853.42;1779395;79;21213;-78
2021/04/24 07:38:03;;;;;;;4.92;2.02;;;;;;;17.90;33.14;100853.48;1784398;79;20285;-76
2021/04/24 07:40:30;;;;;;;3.87;2.27;;;;;;;18.22;32.38;100850.69;1786795;79;21196;-79
2021/04/24 07:42:57;;;;;;;5.45;2.35;;;;;;;18.56;31.78;100849.51;1766926;80;21236;-78
2021/04/24 07:45:25;;;;;;;3.80;2.67;;;;;;;18.85;31.06;100847.05;1782150;79;21180;-80
2021/04/24 07:47:52;;;;;;;3.27;2.30;;;;;;;19.14;30.77;100861.68;1770413;79;21236;-77
2021/04/24 07:50:20;;;;;;;;;;;;;;;19.45;29.94;100849.43;1770269;80;21177;-78
2021/04/24 07:52:48;;;;;;;7.03;2.20;;;;;;;19.70;29.70;100832.84;1784386;80;20253;-77
2021/04/24 07:55:17;;;;;;;3.45;2.05;;;;;;;19.88;29.22;100850.41;1786693;79;21665;-79
2021/04/24 07:57:45;;;;;;;4.12;2.37;;;;;;;19.94;28.61;100846.84;1763340;80;21122;-79
2021/04/24 08:00:16;;;;;;;5.30;2.40;;;;;;;19.91;28.46;100859.52;1801103;79;21097;-78
2021/04/24 08:02:43;;;;;;;3.40;1.70;;;;;;;19.73;28.57;100851.46;1764923;80;21131;-77
2021/04/24 08:05:12;;;;;;;5.37;2.08;;;;;;;19.44;29.02;100850.45;1786220;80;21529;-81
2021/04/24 08:07:41;;;;;;;4.00;2.37;;;;;;;19.13;29.59;100856.47;1767633;80;21149;-79
2021/04/24 08:10:08;;;;;;;;;;;;;;;18.86;30.05;100863.68;1786821;79;21141;-78
2021/04/24 08:12:41;;;;;;;;;;;;;;;18.67;30.77;100859.81;1783701;79;20268;-76
2021/04/24 08:15:10;;;;;;;7.87;2.90;;;;;;;18.62;31.34;100856.84;1777329;80;20233;-77
2021/04/24 08:17:38;;;;;;;4.10;2.20;;;;;;;18.72;31.34;100844.63;1781315;80;21156;-75
2021/04/24 08:20:07;;;;;;;6.10;2.27;;;;;;;18.89;30.83;100842.89;1786178;80;21137;-77
2021/04/24 08:22:35;;;;;;;5.80;2.33;;;;;;;19.00;30.09;100850.47;1769891;80;21113;-78
2021/04/24 08:25:06;;;;;;;5.30;2.30;;;;;;;18.99;29.52;100842.02;1757097;79;21125;-78
2021/04/24 08:27:33;;;;;;;2.55;1.75;;;;;;;18.96;29.39;100839.17;1794587;79;21094;-77
2021/04/24 08:30:00;;;;;;;;;;;;;;;18.94;28.96;100841.27;1800389;79;21602;-81
2021/04/24 08:32:27;;;;;;;3.60;2.05;;;;;;;18.95;28.60;100841.58;1770487;79;20277;-77
2021/04/24 08:34:57;;;;;;;2.83;1.45;;;;;;;18.96;28.52;100845.12;1794094;79;21130;-81
2021/04/24 08:37:24;;;;;;;3.17;1.77;;;;;;;18.94;28.30;100835.84;1767176;79;21391;-78
2021/04/24 08:39:51;;;;;;;3.25;1.57;;;;;;;18.92;28.05;100846.05;1776713;78;21455;-77
2021/04/24 08:42:19;;;;;;;2.52;1.50;;;;;;;18.85;28.02;100841.13;1780967;80;21476;-77
2021/04/24 08:44:52;;;;;;;6.97;2.33;;;;;;;18.80;27.83;100843.59;1774430;78;21667;-77
2021/04/24 08:47:21;;;;;;;3.20;1.40;;;;;;;18.70;27.76;100833.64;1774304;80;21180;-78
2021/04/24 08:49:50;;;;;;;5.40;2.27;;;;;;;18.60;27.61;100832.63;1780931;80;21617;-77
2021/04/24 08:52:20;;;;;;;2.50;1.80;;;;;;;18.53;28.04;100827.70;1776389;79;21176;-77
2021/04/24 08:54:49;;;;;;;4.12;2.05;;;;;;;18.56;28.37;100827.28;1784999;79;21117;-76
2021/04/24 08:57:17;;;;;;;3.15;1.75;;;;;;;18.60;28.09;100827.20;1786969;80;21157;-79
2021/04/24 08:59:44;;;;;;;3.35;1.85;;;;;;;18.59;27.57;100824.70;1787391;78;21125;-78
2021/04/24 09:02:12;;;;;;;1.98;1.52;;;;;;;18.57;27.57;100827.59;1783414;80;21130;-77
2021/04/24 09:04:39;;;;;;;4.03;1.82;;;;;;;18.47;27.81;100827.97;1743900;80;21616;-78
2021/04/24 09:07:06;;;;;;;26.60;19.00;;;;;;;18.33;28.90;100833.53;1772264;79;21607;-77
2021/04/24 09:09:34;;;;;;;24.50;14.98;;;;;;;18.12;29.60;100837.14;1769843;80;21121;-77
2021/04/24 09:12:03;;;;;;;4.67;3.17;;;;;;;18.00;30.84;100843.64;1764552;79;21126;-77
2021/04/24 09:14:30;;;;;;;4.35;2.62;;;;;;;17.96;31.11;100832.88;1802021;78;21169;-79
2021/04/24 09:16:58;;;;;;;4.95;2.40;;;;;;;17.94;31.70;100827.66;1801434;78;21122;-78
2021/04/24 09:19:34;;;;;;;3.25;1.98;;;;;;;18.00;31.97;100826.02;1784523;79;21133;-77
2021/04/24 09:22:21;;;;;;;2.27;1.40;;;;;;;18.06;31.81;100818.45;1768979;80;21687;-78
2021/04/24 09:24:50;;;;;;;3.33;1.87;;;;;;;18.15;30.79;100815.90;1805486;79;21129;-77
2021/04/24 09:27:18;;;;;;;4.72;1.62;;;;;;;18.25;30.49;100819.08;1761575;80;21129;-78
2021/04/24 09:29:47;;;;;;;2.62;1.50;;;;;;;18.33;29.56;100820.80;1772618;77;21150;-77
2021/04/24 09:32:20;;;;;;;13.60;1.77;;;;;;;18.39;29.05;100843.56;1766172;79;21199;-78
2021/04/24 09:34:52;;;;;;;8.83;1.32;;;;;;;18.35;28.96;100851.78;1768314;80;21683;-77
2021/04/24 09:37:22;;;;;;;4.55;1.60;;;;;;;18.07;30.34;100881.11;1786654;79;21125;-77
2021/04/24 09:39:52;;;;;;;4.80;1.70;;;;;;;17.58;31.77;100892.77;1752505;80;21137;-77
2021/04/24 09:42:39;;;;;;;3.47;1.40;;;;;;;17.09;33.38;100909.72;1800301;77;21124;-78
2021/04/24 09:45:31;;;;;;;2.30;1.25;;;;;;;16.65;34.29;100925.95;1798412;77;21182;-78
2021/04/24 09:47:59;;;;;;;2.12;1.37;;;;;;;16.18;35.00;100925.26;1766798;80;21221;-78
2021/04/24 09:50:34;;;;;;;1.62;1.25;;;;;;;15.91;35.52;100926.68;1768860;79;21897;-79
2021/04/24 09:53:22;;;;;;;1.82;1.40;;;;;;;15.65;35.77;100929.74;1806940;78;21616;-80
2021/04/24 09:55:51;;;;;;;2.22;1.32;;;;;;;15.43;36.22;100939.47;1801840;77;21205;-80
2021/04/24 09:58:30;;;;;;;2.10;1.60;;;;;;;15.29;36.47;100940.74;1745056;80;21201;-77
2021/04/24 10:01:22;;;;;;;2.42;1.70;;;;;;;15.25;36.88;100930.80;1774703;80;21245;-78
2021/04/24 10:03:55;;;;;;;4.95;2.00;;;;;;;15.26;37.05;100919.02;1780021;80;21185;-79
2021/04/24 10:06:36;;;;;;;4.08;2.08;;;;;;;15.28;37.10;100909.38;1770932;80;21268;-79
2021/04/24 10:09:18;;;;;;;4.20;1.82;;;;;;;15.29;37.47;100904.30;1777870;80;21688;-77
2021/04/24 10:12:02;;;;;;;2.08;1.72;;;;;;;15.33;37.37;100897.53;1784072;80;21707;-80
2021/04/24 10:14:42;;;;;;;3.25;1.70;;;;;;;15.41;37.22;100892.09;1786164;79;21184;-78
2021/04/24 10:17:12;;;;;;;1.45;1.35;;;;;;;15.48;37.34;100891.69;1755196;80;21778;-78
2021/04/24 10:19:40;;;;;;;2.30;1.30;;;;;;;15.60;37.92;100886.20;1756685;80;21158;-78
2021/04/24 10:22:10;;;;;;;1.90;1.45;;;;;;;15.72;37.04;100884.80;1786168;79;21318;-77
2021/04/24 10:24:38;;;;;;;2.05;1.45;;;;;;;15.85;36.49;100887.38;1778760;78;21208;-77
2021/04/24 10:27:06;;;;;;;2.33;1.45;;;;;;;15.92;36.10;100888.34;1779914;79;21224;-77
2021/04/24 10:29:34;;;;;;;1.92;1.55;;;;;;;16.02;36.06;100884.86;1762209;80;21186;-80
2021/04/24 10:32:03;;;;;;;1.98;1.52;;;;;;;16.14;35.98;100886.62;1786206;80;21212;-78
2021/04/24 10:34:30;;;;;;;2.80;2.00;;;;;;;16.21;35.40;100885.71;1781810;80;21248;-79
2021/04/24 10:36:59;;;;;;;2.35;1.50;;;;;;;16.31;34.96;100887.30;1783161;80;21485;-77
2021/04/24 10:39:28;;;;;;;;;;;;;;;16.37;34.54;100890.09;1786780;80;21197;-79
2021/04/24 10:42:06;;;;;;;1.85;1.42;;;;;;;16.45;34.33;100881.90;1756648;79;20283;-76
2021/04/24 10:44:52;;;;;;;;;;;;;;;16.49;33.98;100875.61;1785199;78;21113;-77
2021/04/24 10:47:51;;;;;;;1.75;1.32;;;;;;;16.64;33.73;100863.42;1834933;77;22314;-77
2021/04/24 10:50:17;;;;;;;4.47;1.65;;;;;;;16.62;32.79;100873.09;1799178;79;21180;-77
2021/04/24 10:52:47;;;;;;;4.03;1.72;;;;;;;16.66;32.68;100873.53;1767663;78;21479;-76
2021/04/24 10:55:23;;;;;;;2.12;1.52;;;;;;;16.69;32.76;100863.18;1776616;79;21803;-77
2021/04/24 10:57:59;;;;;;;4.58;1.15;;;;;;;16.73;31.81;100873.15;1788475;79;20966;-77
2021/04/24 11:00:40;;;;;;;3.98;1.10;;;;;;;16.80;30.77;100871.87;1790181;79;21195;-75
2021/04/24 11:03:09;;;;;;;2.17;1.07;;;;;;;16.84;29.54;100865.05;1782729;79;21191;-77
2021/04/24 11:05:48;;;;;;;5.17;1.07;;;;;;;16.91;28.59;100859.22;1782977;80;21179;-75
2021/04/24 11:08:23;;;;;;;5.60;1.00;;;;;;;16.97;27.94;100851.69;1783050;79;21639;-77
2021/04/24 11:11:10;;;;;;;1.87;0.90;;;;;;;17.02;27.61;100850.59;1785350;79;21168;-79
2021/04/24 11:13:40;;;;;;;1.82;1.15;;;;;;;17.09;27.36;100852.88;1807079;79;21152;-81
2021/04/24 11:16:12;;;;;;;1.17;0.90;;;;;;;17.13;26.96;100850.63;1794741;79;21761;-79
2021/04/24 11:18:42;;;;;;;3.92;1.20;;;;;;;17.16;27.08;100856.48;1801592;79;21184;-78
2021/04/24 11:21:20;;;;;;;1.15;0.90;;;;;;;17.21;27.05;100843.72;1809227;79;21144;-79
2021/04/24 11:23:55;;;;;;;7.75;1.05;;;;;;;17.20;26.39;100856.42;1801703;79;21218;-78
2021/04/24 11:26:37;;;;;;;1.32;0.95;;;;;;;17.21;25.87;100864.89;1803411;79;21411;-79
2021/04/24 11:29:16;;;;;;;1.47;1.05;;;;;;;17.17;25.70;100868.17;1800917;77;21152;-77
2021/04/24 11:31:57;;;;;;;2.33;1.22;;;;;;;17.10;25.48;100872.66;1805689;79;21204;-78
2021/04/24 11:34:42;;;;;;;3.40;1.10;;;;;;;17.06;25.26;100870.84;1778287;79;21543;-78
2021/04/24 11:37:23;;;;;;;4.30;1.00;;;;;;;17.05;25.01;100867.81;1802526;79;21232;-77
2021/04/24 11:40:19;;;;;;;3.00;1.12;;;;;;;17.01;23.55;100863.81;1769098;79;21224;-76
2021/04/24 11:42:59;;;;;;;0.90;0.70;;;;;;;16.94;23.35;100865.59;1800127;79;21648;-80